Weather reports worldwide

Advertisment
Cairnwell, United Kingdom (3072): temperature & dewpoint: 15.01.2021 06:00:00 - 21.01.2021 06:00:00 (GMT)Cairnwell, United Kingdom (3072): wind speed & gusts: 15.01.2021 06:00:00 - 21.01.2021 06:00:00 (GMT)Cairnwell, United Kingdom (3072): wind direction: 15.01.2021 06:00:00 - 21.01.2021 06:00:00 (GMT)
Date & Time tt [°C] td [°C] ff [km/h] ff [kn] fx [km/h] fx [kn] dd
21.01.2021 06:00:00 - - - - - - -
21.01.2021 05:00:00 -3,0 -3,1 57 31 81 44 NNW
21.01.2021 04:00:00 -3,2 -3,2 50 27 72 39 N
21.01.2021 03:00:00 -3,8 -4,0 44 24 57 31 N
21.01.2021 02:00:00 -4,1 -4,3 28 15 - - N
21.01.2021 01:00:00 -4,1 -4,4 37 20 - - N
21.01.2021 00:00:00 -4,2 -4,4 34 18 - - N
20.01.2021 23:00:00 -4,2 -4,3 26 14 - - N
20.01.2021 22:00:00 -4,1 -4,3 29 16 - - N
20.01.2021 21:00:00 -4,0 -4,1 24 13 - - NNE
20.01.2021 20:00:00 -4,0 -4,2 22 12 - - NNE
20.01.2021 19:00:00 -4,0 -4,1 24 13 - - NNE
20.01.2021 18:00:00 -4,0 -4,2 28 15 - - NNE
20.01.2021 17:00:00 -3,9 -4,0 24 13 - - N
20.01.2021 16:00:00 -3,6 -3,7 24 13 - - N
20.01.2021 15:00:00 -3,4 -3,8 21 11 - - NNE
20.01.2021 14:00:00 -3,4 -4,0 15 8 - - NNE
20.01.2021 13:00:00 -3,3 -4,1 15 8 - - NNE
20.01.2021 12:00:00 -3,3 -3,9 11 6 - - NNE
20.01.2021 11:00:00 -3,2 -3,6 11 6 - - NNE
20.01.2021 10:00:00 -3,2 -3,4 11 6 - - NNE
20.01.2021 09:00:00 -3,4 -3,7 11 6 - - NNE
20.01.2021 08:00:00 -3,3 -3,4 11 6 - - NE
20.01.2021 07:00:00 -3,5 -3,6 16 9 - - NNE
20.01.2021 06:00:00 -3,8 -3,9 16 9 - - NNE
20.01.2021 05:00:00 -3,7 -3,9 15 8 - - NNE
20.01.2021 04:00:00 -3,6 -3,8 15 8 - - NE
20.01.2021 03:00:00 -3,8 -4,1 15 8 - - NNE
20.01.2021 02:00:00 -3,7 -3,8 15 8 - - NE
20.01.2021 01:00:00 -3,9 -4,1 16 9 - - ENE
20.01.2021 00:00:00 -3,7 -4,2 16 9 - - E
19.01.2021 23:00:00 -3,2 -3,2 22 12 - - ESE
19.01.2021 22:00:00 -4,4 -6,8 13 7 - - ESE
19.01.2021 21:00:00 -4,2 -6,9 9 5 - - ENE
19.01.2021 20:00:00 -3,9 -7,3 11 6 - - ENE
19.01.2021 19:00:00 -4,0 -7,7 9 5 - - N
19.01.2021 18:00:00 -3,9 -9,1 4 2 - - ESE
19.01.2021 17:00:00 -3,9 -9,1 11 6 - - ESE
19.01.2021 16:00:00 -3,8 -7,8 4 2 - - NNE
19.01.2021 15:00:00 -3,5 -8,3 13 7 - - E
19.01.2021 14:00:00 -3,1 -6,7 8 4 - - NNE
19.01.2021 13:00:00 -3,3 -5,6 15 8 - - N
19.01.2021 12:00:00 -3,5 -4,7 35 19 - - WNW
19.01.2021 11:00:00 -3,7 -4,8 11 6 - - NW
19.01.2021 10:00:00 -3,8 -4,4 18 10 - - WNW
19.01.2021 09:00:00 -3,8 -4,3 29 16 - - WNW
19.01.2021 08:00:00 -3,9 -4,0 29 16 - - WNW
19.01.2021 07:00:00 -3,7 -3,9 34 18 46 25 WNW
19.01.2021 06:00:00 -3,3 -3,8 37 20 55 30 WNW
19.01.2021 05:00:00 -3,2 -3,3 29 16 54 29 WNW
19.01.2021 04:00:00 -3,3 -3,5 37 20 - - W
19.01.2021 03:00:00 -3,2 -3,4 24 13 - - WNW
19.01.2021 02:00:00 -3,2 -3,3 22 12 55 30 WNW
19.01.2021 01:00:00 -2,8 -3,2 46 25 57 31 W
19.01.2021 00:00:00 -2,6 -3,1 34 18 65 35 W
18.01.2021 23:00:00 -2,4 -2,7 42 23 80 43 W
18.01.2021 22:00:00 -2,0 -2,1 57 31 83 45 WNW
18.01.2021 21:00:00 -1,7 -1,7 61 33 87 47 W
18.01.2021 20:00:00 -1,7 -1,7 46 25 65 35 W
18.01.2021 19:00:00 -1,6 -1,6 35 19 61 33 WSW
18.01.2021 18:00:00 -1,5 -1,5 39 21 54 29 WSW
18.01.2021 17:00:00 -1,4 -1,4 44 24 91 49 WSW
18.01.2021 16:00:00 -1,6 -2,3 68 37 93 50 W
18.01.2021 15:00:00 -1,9 -3,0 74 40 100 54 W
18.01.2021 14:00:00 -2,0 -3,5 68 37 87 47 W
18.01.2021 13:00:00 -1,9 -2,1 57 31 78 42 W
18.01.2021 12:00:00 -2,0 -2,3 44 24 85 46 W
18.01.2021 11:00:00 -2,3 -3,1 59 32 74 40 W
18.01.2021 10:00:00 -2,3 -2,8 54 29 83 45 W
18.01.2021 09:00:00 -2,3 -2,7 54 29 76 41 W
18.01.2021 08:00:00 -2,6 -3,1 52 28 102 55 W
18.01.2021 07:00:00 -2,8 -3,6 61 33 81 44 W
18.01.2021 06:00:00 -2,8 -2,9 55 30 102 55 W
18.01.2021 05:00:00 -3,0 -3,5 48 26 89 48 W
18.01.2021 04:00:00 -2,6 -2,8 61 33 102 55 WNW
18.01.2021 03:00:00 -2,0 -2,0 59 32 81 44 W
18.01.2021 02:00:00 -1,4 -1,4 52 28 81 44 WNW
18.01.2021 01:00:00 -0,9 -0,9 52 28 87 47 W
18.01.2021 00:00:00 -0,9 -0,9 63 34 106 57 W
17.01.2021 23:00:00 -0,5 -0,5 65 35 96 52 WSW
17.01.2021 22:00:00 -0,2 -0,2 67 36 98 53 WSW
17.01.2021 21:00:00 -0,7 -0,7 61 33 72 39 WSW
17.01.2021 20:00:00 -0,3 -0,3 65 35 91 49 W
17.01.2021 19:00:00 -0,5 -0,5 59 32 83 45 W
17.01.2021 18:00:00 -1,0 -1,0 48 26 57 31 WSW
17.01.2021 17:00:00 -1,9 -1,9 39 21 - - SW
17.01.2021 16:00:00 -1,9 -1,9 37 20 - - SSW
17.01.2021 15:00:00 -1,6 -1,6 37 20 63 34 SW
17.01.2021 14:00:00 -1,5 -1,9 57 31 68 37 WSW
17.01.2021 13:00:00 -2,3 -3,1 21 11 74 40 SSW
17.01.2021 12:00:00 -2,1 -2,8 37 20 52 28 W
17.01.2021 11:00:00 -1,7 -2,8 48 26 59 32 W
17.01.2021 10:00:00 -2,0 -2,7 41 22 55 30 W
17.01.2021 09:00:00 -1,9 -3,4 35 19 70 38 W
17.01.2021 08:00:00 -2,1 -2,6 39 21 80 43 W
17.01.2021 07:00:00 -2,3 -2,7 37 20 72 39 WNW
17.01.2021 06:00:00 -2,1 -2,6 54 29 91 49 WNW
17.01.2021 05:00:00 -2,1 -2,8 44 24 76 41 W
17.01.2021 04:00:00 -2,1 -3,1 42 23 93 50 W
17.01.2021 03:00:00 -2,0 -3,0 61 33 83 45 WNW
17.01.2021 02:00:00 -2,1 -2,8 65 35 87 47 WNW
17.01.2021 01:00:00 -2,0 -2,5 68 37 85 46 WNW
17.01.2021 00:00:00 -2,0 -2,1 63 34 81 44 WNW
16.01.2021 23:00:00 -2,2 -2,5 50 27 91 49 WNW
16.01.2021 22:00:00 -1,8 -2,0 55 30 83 45 WNW
16.01.2021 21:00:00 -1,4 -2,4 41 22 120 65 W
16.01.2021 20:00:00 -1,3 -2,1 91 49 130 70 W
16.01.2021 19:00:00 -1,0 -1,9 91 49 122 66 W
16.01.2021 18:00:00 -0,7 -1,2 80 43 137 74 W
16.01.2021 17:00:00 -0,3 -0,5 83 45 124 67 W
16.01.2021 16:00:00 -0,2 -0,2 85 46 126 68 W
16.01.2021 15:00:00 0,3 0,3 94 51 133 72 W
16.01.2021 14:00:00 0,7 0,7 102 55 124 67 W
16.01.2021 13:00:00 0,4 0,4 68 37 89 48 W
16.01.2021 12:00:00 -0,5 -0,5 13 7 46 25 WSW
16.01.2021 11:00:00 -1,4 -1,4 13 7 57 31 SSW
16.01.2021 10:00:00 -2,2 -2,2 39 21 46 25 SSW
16.01.2021 09:00:00 -2,6 -2,6 34 18 65 35 SSW
16.01.2021 08:00:00 -2,7 -2,7 52 28 68 37 S
16.01.2021 07:00:00 -3,2 -3,3 46 25 74 40 S
16.01.2021 06:00:00 -3,2 -3,3 67 36 96 52 SSE
16.01.2021 05:00:00 -3,2 -3,2 85 46 117 63 SSE
16.01.2021 04:00:00 -3,0 -3,1 83 45 106 57 SSE
16.01.2021 03:00:00 -3,1 -3,3 80 43 102 55 S
16.01.2021 02:00:00 -3,1 -3,1 74 40 98 53 S
16.01.2021 01:00:00 -3,8 -3,9 68 37 93 50 S
16.01.2021 00:00:00 -3,6 -3,8 68 37 102 55 S
15.01.2021 23:00:00 -3,8 -4,0 74 40 100 54 S
15.01.2021 22:00:00 -3,9 -4,1 65 35 93 50 S
15.01.2021 21:00:00 -4,4 -4,6 68 37 80 43 S
15.01.2021 20:00:00 -4,4 -4,6 54 29 67 36 S
15.01.2021 19:00:00 -3,9 -4,1 54 29 67 36 S
15.01.2021 18:00:00 -4,0 -4,2 55 30 61 33 S
15.01.2021 17:00:00 -4,1 -4,2 48 26 55 30 S
15.01.2021 16:00:00 -4,0 -4,1 41 22 52 28 S
15.01.2021 15:00:00 -3,8 -3,9 41 22 46 25 SSW
15.01.2021 14:00:00 -3,8 -4,0 39 21 - - SSW
15.01.2021 13:00:00 -3,6 -3,8 31 17 - - SW
15.01.2021 12:00:00 -3,4 -3,6 24 13 - - SSW
15.01.2021 11:00:00 -2,7 -2,9 16 9 - - SSW
15.01.2021 10:00:00 -2,5 -2,5 9 5 - - S
15.01.2021 09:00:00 -2,8 -2,9 4 2 - - SW
15.01.2021 08:00:00 -3,1 -3,3 4 2 - - SW
15.01.2021 07:00:00 -2,5 -2,6 11 6 - - WNW
15.01.2021 06:00:00 -2,4 -2,4 8 4 - - NW

tt = temperature
td = dewpoint
ff = wind speed
fx = gusts
dd = wind direction

Next stations